MMPB 090240Z 19003KT 8SM SKC 14/04 A3035 RMK HZY= 090240

MMPB 090144Z 23007KT 8SM SKC 15/04 A3032 RMK HZY= 090144

MMPB 090046Z 21008KT 8SM SKC 16/03 A3030 RMK HZY= 090046

MMPB 082340Z 20009KT 8SM SKC 19/03 A3028 RMK HZY= 082341

MMPB 082143Z 10008KT 8SM SKC 25/01 A3027 RMK HZY= 082143

MMPB 082047Z 10004KT 8SM SKC 24/00 A3028 RMK HZY= 082047

MMPB 081944Z 08002KT 8SM SKC 25/01 A3030 RMK HZY= 081944

MMPB 081853Z 00000KT 8SM SKC 24/01 A3033 RMK HZY= 081854

MMPB 081745Z 06005KT 8SM SKC 23/02 A3038 RMK HZY CI= 081746

MMPB 081640Z 00000KT 8SM SKC 21/05 A3041 RMK HZY CI= 081641

MMPB 081542Z 03002KT 8SM SKC 18/04 A3043 RMK HZY= 081542

MMPB 081447Z 01006KT 8SM SKC 13/03 A3042 RMK HZY CI= 081447

MMPB 081347Z 34008KT 8SM FEW220 08/02 A3040 RMK 8/002 HZY= 081348

MMPB 081300Z RTD 34007KT 10SM SCT220 06/01 A3039 RMK 8/002 HZ RTS= 081301

MMPB 080543Z 29002KT 8SM SKC 09/02 A3035 RMK HZY= 080544

MMPB 080440Z 28004KT 8SM SKC 10/00 A3035 RMK HZY= 080441

MMPB 080342Z 27005KT 9SM SKC 12/02 A3034 RMK HZY= 080343

MMPB 080244Z 20004KT 8SM SKC 12/01 A3033 RMK HZY= 080245

MMPB 080045Z 19007KT 9SM SKC 14/01 A3029 RMK HZY CI= 080046

MMPB 072353Z 17009KT 11SM SKC 17/00 A3027 RMK CI= 072354

MMPB 072243Z 19015KT 12SM SKC 22/M02 A3026 RMK CI= 072244

MMPB 072156Z 18011KT 11SM SKC 23/M03 A3025= 072157

MMPB 072041Z 21011KT 11SM SKC 24/M03 A3026= 072042

MMPB 071945Z 17011KT 10SM SKC 25/M01 A3027 RMK HZY= 071945

MMPB 071849Z 18004KT 9SM SKC 23/M01 A3032 RMK HZY= 071849

MMPB 071743Z 14006KT 9SM SKC 22/M01 A3036 RMK HZY= 071744

MMPB 071642Z 03004KT 8SM SKC 19/01 A3039 RMK HZY= 071642

MMPB 071542Z 35007KT 7SM SKC 16/04 A3040 RMK HZY CI= 071543

SPECI MMPB 071451Z 35005KT 7SM SKC 12/04 A3040 RMK HZY CI= 071452

MMPB 071343Z 33008KT 8SM SKC 07/03 A3038 RMK HZY= 071343

MMPB 071313Z RTD 36006KT 7SM SKC 04/02 A3037 RMK HZY RTS= 071313

MMPB 070845Z 33006KT 6SM SKC 06/03 A3036 RMK HZY= 070847

MMPB 070742Z 33003KT 6SM SKC 08/03 A3037 RMK HZY CI= 070743

MMPB 070640Z 32006KT 6SM SKC 08/03 A3039 RMK HZY= 070641

MMPB 070542Z 34005KT 6SM SKC 09/03 A3040 RMK HZY= 070543

MMPB 070448Z 32004KT 7SM SKC 08/03 A3040 RMK HZY= 070449

MMPB 070346Z 28004KT 7SM SKC 11/03 A3039 RMK HZY= 070347

MMPB 070245Z 29002KT 7SM SKC 12/05 A3037 RMK HZY= 070245

MMPB 070144Z 03005KT 8SM SKC 12/05 A3035 RMK HZY= 070145

MMPB 070044Z 22008KT 8SM SKC 16/05 A3032 RMK HZY= 070045

MMPB 062343Z 21007KT 9SM SKC 18/05 A3032 RMK HZY= 062347

MMPB 062242Z 19009KT 9SM SKC 22/04 A3030 RMK HZY CU= 062243

MMPB 062147Z 09003KT 9SM SKC 23/02 A3030 RMK HZY CU= 062148

MMPB 062041Z 13008KT 9SM SKC 24/02 A3031 RMK HZY CU= 062042

MMPB 061944Z 22005KT 8SM SKC 23/00 A3034 RMK HZY CI CU= 061945

MMPB 061846Z 17002KT 8SM SKC 22/02 A3037 RMK HZY CI= 061847

MMPB 061743Z 08002KT 7SM FEW230 21/04 A3040 RMK 8/001 HZY= 061743

MMPB 061649Z 07003KT 7SM SKC 19/05 A3043 RMK HZY CI= 061649

MMPB 061542Z 01004KT 7SM SKC 16/05 A3044 RMK HZY CI= 061543

MMPB 061449Z 35006KT 7SM SKC 12/04 A3043 RMK HZY CI= 061450